»·PEaware :: DAL8394 KPSP-KSBD

DAL8394 :: KPSP-KSBD

FLIGHT INFORMATION

Flight Status: Arrived
Operator:
Delta Air Lines
More flights by this operator :: More flights under this callsign
Pilot: Erik K. (18332)
Aircraft: BEECH AIRCRAFT BEECH AIRLINER
(B190)
More flights by this aircraft type
Origin: KPSP Palm Springs Intl
United States
Destination: KSBD San Bernardino Intl
United States
More flights between these airports :: More routes between these airports
Route: CATH1 PSP V388 PDZ
File this flight plan on PilotEdge
Remarks: IFR practice
Altitude:
(Current/Filed)
12,000ft
Speed:
(Current/Filed)
115kts
Departed: 08-Apr-18 08:39 PM
Arrived: 08-Apr-18 09:09 PM
Distance/Time
Traveled:
40nm/0:29
Distance/Time
To Go:
Arrived

Flight Plot

Page will automatically refresh every two minutes.


Map Options




Map Legend


Flown Route
Filed Route
Departure Airport
Arrival Airport
Navaid (VOR, NDB)
Fix

Horizontal Profiles

Position Reports

Time Latitude Longitude Heading Altitude Ground
Speed
08-Apr-18 19:59 33.824127 -116.507799 211 416ft 0kts
08-Apr-18 20:00 33.824127 -116.507799 211 416ft 0kts
08-Apr-18 20:01 33.824127 -116.507799 211 416ft 0kts
08-Apr-18 20:02 33.824127 -116.507799 211 416ft 0kts
08-Apr-18 20:03 33.824127 -116.507799 211 416ft 0kts
08-Apr-18 20:04 33.824127 -116.507799 211 416ft 0kts
08-Apr-18 20:05 33.824127 -116.507799 211 416ft 0kts
08-Apr-18 20:06 33.824127 -116.507799 211 416ft 0kts
08-Apr-18 20:07 33.824127 -116.507799 211 416ft 0kts
08-Apr-18 20:08 33.824127 -116.507799 211 416ft 0kts
08-Apr-18 20:09 33.824127 -116.507799 211 416ft 0kts
08-Apr-18 20:10 33.824127 -116.507799 211 416ft 0kts
08-Apr-18 20:11 33.824127 -116.507799 211 416ft 0kts
08-Apr-18 20:12 33.824127 -116.507799 211 416ft 0kts
08-Apr-18 20:13 33.824127 -116.507799 211 416ft 0kts
08-Apr-18 20:14 33.824127 -116.507799 211 416ft 0kts
08-Apr-18 20:15 33.824127 -116.507799 211 416ft 0kts
08-Apr-18 20:16 33.824127 -116.507799 211 416ft 0kts
08-Apr-18 20:17 33.824109 -116.507812 206 416ft 0kts
08-Apr-18 20:18 33.825210 -116.506345 43 416ft 8kts
08-Apr-18 20:19 33.823408 -116.504070 146 410ft 20kts
08-Apr-18 20:20 33.818657 -116.499822 119 399ft 7kts
08-Apr-18 20:21 33.818599 -116.499666 109 398ft 0kts
08-Apr-18 20:22 33.818599 -116.499666 109 398ft 0kts
08-Apr-18 20:23 33.818599 -116.499666 109 398ft 0kts
08-Apr-18 20:24 33.818599 -116.499666 109 398ft 0kts
08-Apr-18 20:25 33.818599 -116.499666 109 398ft 0kts
08-Apr-18 20:26 33.818599 -116.499666 109 398ft 0kts
08-Apr-18 20:27 33.818599 -116.499666 109 398ft 0kts
08-Apr-18 20:28 33.818599 -116.499666 109 398ft 0kts
08-Apr-18 20:29 33.818599 -116.499666 109 398ft 0kts
08-Apr-18 20:30 33.818599 -116.499666 109 398ft 0kts
08-Apr-18 20:31 33.818599 -116.499666 109 398ft 0kts
08-Apr-18 20:32 33.818599 -116.499666 109 398ft 0kts
08-Apr-18 20:33 33.818599 -116.499666 109 398ft 0kts
08-Apr-18 20:34 33.818599 -116.499666 109 398ft 0kts
08-Apr-18 20:35 33.818599 -116.499666 109 398ft 0kts
08-Apr-18 20:36 33.818599 -116.499666 109 398ft 0kts
08-Apr-18 20:37 33.818556 -116.499186 92 397ft 17kts
08-Apr-18 20:38 33.835102 -116.512783 322 593ft 202kts
08-Apr-18 20:39 33.877855 -116.546588 325 5005ft 191kts
08-Apr-18 20:40 33.925956 -116.573641 358 8331ft 208kts
08-Apr-18 20:41 33.930609 -116.519471 143 10126ft 222kts
08-Apr-18 20:42 33.886690 -116.480961 115 11960ft 231kts
08-Apr-18 20:43 33.921997 -116.443900 334 11570ft 240kts
08-Apr-18 20:44 33.939912 -116.503123 251 12052ft 222kts
08-Apr-18 20:45 33.933912 -116.577930 272 11886ft 233kts
08-Apr-18 20:46 33.939116 -116.653855 275 11885ft 231kts
08-Apr-18 20:47 33.946776 -116.730252 272 11882ft 231kts
08-Apr-18 20:48 33.944175 -116.807190 267 11885ft 231kts
08-Apr-18 20:49 33.941541 -116.883527 267 12004ft 227kts
08-Apr-18 20:50 33.938949 -116.958017 267 12023ft 230kts
08-Apr-18 20:51 33.936282 -117.033446 267 11704ft 243kts
08-Apr-18 20:52 33.933466 -117.110838 267 10733ft 224kts
08-Apr-18 20:53 33.930836 -117.182905 267 9020ft 232kts
08-Apr-18 20:54 33.928108 -117.256107 267 7037ft 227kts
08-Apr-18 20:55 33.925524 -117.323890 267 5262ft 205kts
08-Apr-18 20:56 33.923365 -117.379273 269 4969ft 145kts
08-Apr-18 20:57 33.936116 -117.423244 291 4235ft 165kts
08-Apr-18 20:58 33.952016 -117.471389 291 3997ft 149kts
08-Apr-18 20:59 33.975487 -117.507543 310 3939ft 140kts
08-Apr-18 21:00 34.000283 -117.537245 351 3863ft 149kts
08-Apr-18 21:01 34.020362 -117.503996 78 3805ft 148kts
08-Apr-18 21:02 34.030905 -117.456974 72 3301ft 147kts
08-Apr-18 21:03 34.042684 -117.414915 70 3158ft 135kts
08-Apr-18 21:04 34.054358 -117.374955 70 3025ft 130kts
08-Apr-18 21:05 34.065918 -117.335488 70 2605ft 128kts
08-Apr-18 21:06 34.077266 -117.296831 70 1918ft 127kts
08-Apr-18 21:07 34.087615 -117.260957 71 1455ft 102kts
08-Apr-18 21:08 34.094313 -117.240912 37 1103ft 35kts
08-Apr-18 21:09 34.094648 -117.240610 34 1103ft 0kts
08-Apr-18 21:10 34.095687 -117.239731 35 1107ft 20kts
08-Apr-18 21:11 34.098937 -117.238233 337 1111ft 20kts
08-Apr-18 21:12 34.102701 -117.241947 16 1106ft 2kts
08-Apr-18 21:13 34.102881 -117.241881 17 1106ft 0kts

Navigation Log

Ident Type
Flight plan parsing failed, navigation log unavailable